Aérodrome :
LOGIN :

S'inscrire | Disclaimer

   EN    FR    IT 

 










Légende :    VFR   VFR Marginal   IFR   IFR Intensif   IFR Très Intensif
Visi : 
Plafond : 
>= 8 km
>= 3000ft
5 à 8 km
1000 à 3000 ft
1500m à 5 km
500 à 1000 ft
800 à 1500m
200 à 500 ft
< 800m
< 200 ft
Symboles :   Orages  Brouillard  Fortes neiges  Fortes précipitations  Vent > 20 kt
SIGMETs :   Divers  Orages  Givrage  Turbulence  Onde Orograph.  Cendres Volcan.






- Altitude de l'aérodrome : 65 ft
- Code IATA : PIK


EGPK - Glasgow Prestwick

DERNIER METAR :
  • 110850Z 19017KT 9999 FEW015 BKN025 06/02 Q0994

METARs EXPIRÉS :
  • 110820Z 19014KT 9999 -RA FEW015 BKN025 06/02 Q0994
  • 110750Z 20015KT 9999 FEW012 BKN024 06/02 Q0994
  • 110720Z 20015KT 9999 FEW012 BKN024 06/02 Q0994
  • 110650Z 20019KT 9999 -SHRA FEW012 BKN025 06/02 Q0994
  • 110620Z 19017KT 9999 FEW012 BKN025 06/02 Q0994

TAF TAF EGPK
Valide du 11 à 06h jusqu'au 12 à 06h UTC


110500Z 1106/1206 23015KT 9999 SCT035
PROB30
TEMPO 1106/1118 23025G35KT 4000 +SHRAGS BKN010CB
PROB30
TEMPO 1118/1203 7000 SHRA BKN010



MET'MAP, la Météo Aéronautique d'un coup d'oeil ! - Copyright ORBIFLY Décembre 2007 - Disclaimer

ORBIFLY MET'MAP TEAM :

Programmation & Développement : Alexandra Zaïnal
Sur une idée originale de : Baudouin d'Aumeries
Assistance à la programmation : Marc-Olivier Méhu
Soutien technique & logistique : Manuel Goepfert

Contact : metmap@orbifly.com




SOURCES & CREDITS :

   NOAA